Time;durP1;ratioP1;P1;durP2;ratioP2;P2;SDS_P1;SDS_P2;PMS_P1;PMS_P2;Temp;Humidity;BMP_temperature;BMP_pressure;BME280_temperature;BME280_humidity;BME280_pressure;Samples;Min_cycle;Max_cycle;Signal;HPM_P1;HPM_P2
2024/04/03 00:00:53;;;;;;;11.25;2.67;;;;;;;;;;5058329;28;20041;-83
2024/04/03 00:03:43;;;;;;;8.10;2.13;;;;;;;;;;5061392;28;20033;-81
2024/04/03 00:06:35;;;;;;;3.55;1.60;;;;;;;;;;5058362;28;20033;-80
2024/04/03 00:09:27;;;;;;;4.28;2.15;;;;;;;;;;5062451;28;20037;-84
2024/04/03 00:12:21;;;;;;;7.20;2.33;;;;;;;;;;5061878;28;20041;-81
2024/04/03 00:15:13;;;;;;;4.60;2.00;;;;;;;;;;5057717;28;20506;-83
2024/04/03 00:18:05;;;;;;;4.88;2.08;;;;;;;;;;5056967;28;20403;-82
2024/04/03 00:21:04;;;;;;;3.75;2.40;;;;;;;;;;5075888;28;20033;-80
2024/04/03 00:23:56;;;;;;;4.07;2.60;;;;;;;;;;5061703;28;20041;-82
2024/04/03 00:26:47;;;;;;;4.43;2.53;;;;;;;;;;5059747;28;20044;-82
2024/04/03 00:29:37;;;;;;;9.48;3.80;;;;;;;;;;5062472;28;20037;-82
2024/04/03 00:32:29;;;;;;;4.78;2.38;;;;;;;;;;5061746;28;20041;-82
2024/04/03 00:35:20;;;;;;;4.07;2.63;;;;;;;;;;5061532;28;20037;-82
2024/04/03 00:38:12;;;;;;;7.75;2.55;;;;;;;;;;5055408;28;20037;-81
2024/04/03 00:41:03;;;;;;;7.05;2.95;;;;;;;;;;5061516;28;20033;-82
2024/04/03 00:43:55;;;;;;;5.30;2.88;;;;;;;;;;5061335;28;20383;-81
2024/04/03 00:46:44;;;;;;;11.45;3.30;;;;;;;;;;5058970;28;20067;-81
2024/04/03 00:49:36;;;;;;;9.63;2.67;;;;;;;;;;5058615;28;20398;-81
2024/04/03 00:52:28;;;;;;;9.38;2.50;;;;;;;;;;5060691;28;20045;-82
2024/04/03 00:55:18;;;;;;;7.90;3.03;;;;;;;;;;5061185;28;20045;-82
2024/04/03 00:58:10;;;;;;;9.10;2.20;;;;;;;;;;5053806;28;20033;-80
2024/04/03 01:01:02;;;;;;;4.63;2.55;;;;;;;;;;5055605;28;20037;-80
2024/04/03 01:03:54;;;;;;;3.85;2.63;;;;;;;;;;5060532;28;20029;-79
2024/04/03 01:06:46;;;;;;;6.85;2.78;;;;;;;;;;5058239;28;20040;-81
2024/04/03 01:09:35;;;;;;;11.35;2.75;;;;;;;;;;5061791;28;20041;-81
2024/04/03 01:12:27;;;;;;;8.80;2.45;;;;;;;;;;5061463;28;20043;-82
2024/04/03 01:15:17;;;;;;;9.45;4.38;;;;;;;;;;5061552;28;20037;-82
2024/04/03 01:18:09;;;;;;;7.70;2.00;;;;;;;;;;5055407;28;20037;-80
2024/04/03 01:21:01;;;;;;;7.03;2.80;;;;;;;;;;5060200;28;20029;-81
2024/04/03 01:23:52;;;;;;;8.02;2.42;;;;;;;;;;5060992;28;20033;-81
2024/04/03 01:26:42;;;;;;;6.47;2.20;;;;;;;;;;5058190;28;20045;-82
2024/04/03 01:29:31;;;;;;;10.10;2.85;;;;;;;;;;5060451;28;20493;-82
2024/04/03 01:32:19;;;;;;;10.63;2.63;;;;;;;;;;5054896;28;20033;-79
2024/04/03 01:35:11;;;;;;;9.80;2.72;;;;;;;;;;5061088;28;20040;-81
2024/04/03 01:38:03;;;;;;;9.18;2.38;;;;;;;;;;5054469;28;20037;-80
2024/04/03 01:40:55;;;;;;;9.13;2.72;;;;;;;;;;5059937;28;20033;-81
2024/04/03 01:43:47;;;;;;;4.38;2.42;;;;;;;;;;5057389;28;20029;-82
2024/04/03 01:46:38;;;;;;;10.60;1.52;;;;;;;;;;5058472;28;20048;-82
2024/04/03 01:49:30;;;;;;;4.90;2.40;;;;;;;;;;5060166;28;20656;-82
2024/04/03 01:52:20;;;;;;;6.22;2.38;;;;;;;;;;5055893;28;20044;-81
2024/04/03 01:55:12;;;;;;;4.70;1.98;;;;;;;;;;5060047;28;20033;-80
2024/04/03 01:58:04;;;;;;;9.20;2.65;;;;;;;;;;5054740;28;20510;-81
2024/04/03 02:00:56;;;;;;;10.60;1.55;;;;;;;;;;5056500;28;20040;-80
2024/04/03 02:03:48;;;;;;;8.80;2.00;;;;;;;;;;5059541;28;20029;-81
2024/04/03 02:06:40;;;;;;;4.07;1.73;;;;;;;;;;5058542;28;20041;-81
2024/04/03 02:09:32;;;;;;;3.22;1.95;;;;;;;;;;5060502;28;20041;-82
2024/04/03 02:12:21;;;;;;;5.75;2.13;;;;;;;;;;5052490;28;20781;-81
2024/04/03 02:15:13;;;;;;;6.55;2.53;;;;;;;;;;5057104;28;20041;-81
2024/04/03 02:18:05;;;;;;;4.70;1.92;;;;;;;;;;5053637;28;20049;-81
2024/04/03 02:20:57;;;;;;;7.38;3.05;;;;;;;;;;5057435;28;20041;-81
2024/04/03 02:23:46;;;;;;;18.42;2.55;;;;;;;;;;5059342;28;20033;-81
2024/04/03 02:26:38;;;;;;;12.00;2.88;;;;;;;;;;5053430;28;20516;-81
2024/04/03 02:29:30;;;;;;;11.77;2.78;;;;;;;;;;5058296;28;20042;-81
2024/04/03 02:32:22;;;;;;;10.20;3.95;;;;;;;;;;5055146;28;20051;-81
2024/04/03 02:35:14;;;;;;;7.95;2.40;;;;;;;;;;5059333;28;20043;-80
2024/04/03 02:38:03;;;;;;;8.20;2.40;;;;;;;;;;5054015;28;20037;-81
2024/04/03 02:40:50;;;;;;;11.73;2.67;;;;;;;;;;5055244;28;20029;-81
2024/04/03 02:43:42;;;;;;;10.52;2.50;;;;;;;;;;5058814;28;20501;-81
2024/04/03 02:46:34;;;;;;;7.22;2.08;;;;;;;;;;5055519;28;20033;-81
2024/04/03 02:49:25;;;;;;;5.05;2.38;;;;;;;;;;5053136;28;20041;-80
2024/04/03 02:52:17;;;;;;;4.70;2.03;;;;;;;;;;5056528;28;20664;-80
2024/04/03 02:55:14;;;;;;;5.93;2.13;;;;;;;;;;5059157;28;20384;-81
2024/04/03 02:58:06;;;;;;;5.22;2.17;;;;;;;;;;5053361;28;20036;-80
2024/04/03 03:01:02;;;;;;;5.15;2.28;;;;;;;;;;5055856;28;20041;-80
2024/04/03 03:03:51;;;;;;;3.75;2.08;;;;;;;;;;5054170;28;20029;-81
2024/04/03 03:06:43;;;;;;;6.53;2.45;;;;;;;;;;5057052;28;20033;-83
2024/04/03 03:09:35;;;;;;;13.48;2.78;;;;;;;;;;5059502;28;20037;-83
2024/04/03 03:12:24;;;;;;;9.55;2.50;;;;;;;;;;5053406;28;20046;-83
2024/04/03 03:15:16;;;;;;;5.03;2.47;;;;;;;;;;5059242;28;20041;-82
2024/04/03 03:18:08;;;;;;;4.00;1.90;;;;;;;;;;5052860;28;20040;-81
2024/04/03 03:21:08;;;;;;;14.38;2.58;;;;;;;;;;5059749;28;20029;-80
2024/04/03 03:24:00;;;;;;;9.13;2.53;;;;;;;;;;5063320;28;20044;-82
2024/04/03 03:26:50;;;;;;;9.05;1.90;;;;;;;;;;5060729;28;20033;-82
2024/04/03 03:29:41;;;;;;;7.85;2.80;;;;;;;;;;5063240;28;20037;-82
2024/04/03 03:32:33;;;;;;;13.68;3.42;;;;;;;;;;5058182;28;20379;-81
2024/04/03 03:35:22;;;;;;;8.10;1.83;;;;;;;;;;5062650;28;20051;-83
2024/04/03 03:38:14;;;;;;;10.05;1.75;;;;;;;;;;5063037;28;20032;-83
2024/04/03 03:41:09;;;;;;;5.65;1.92;;;;;;;;;;5068274;28;20625;-81
2024/04/03 03:43:58;;;;;;;11.82;2.38;;;;;;;;;;5078788;28;20036;-79
2024/04/03 03:46:50;;;;;;;9.23;2.00;;;;;;;;;;5071400;28;20047;-80
2024/04/03 03:52:50;;;;;;;12.98;2.10;;;;;;;;;;5062291;28;20052;-81
2024/04/03 03:55:40;;;;;;;5.75;2.17;;;;;;;;;;5061589;28;20041;-79
2024/04/03 03:58:32;;;;;;;10.55;1.77;;;;;;;;;;5061465;28;20029;-80
2024/04/03 04:01:26;;;;;;;8.90;2.08;;;;;;;;;;5056593;28;20048;-81
2024/04/03 04:04:18;;;;;;;5.47;2.22;;;;;;;;;;5056683;28;20033;-81
2024/04/03 04:07:10;;;;;;;2.67;1.65;;;;;;;;;;5058487;28;20664;-80
2024/04/03 04:09:58;;;;;;;6.65;2.30;;;;;;;;;;5063750;28;20037;-82
2024/04/03 04:12:53;;;;;;;13.00;1.73;;;;;;;;;;5062557;28;20037;-81
2024/04/03 04:15:40;;;;;;;17.35;3.72;;;;;;;;;;5062596;28;20487;-81
2024/04/03 04:18:29;;;;;;;4.88;2.30;;;;;;;;;;5062292;28;20045;-82
2024/04/03 04:21:21;;;;;;;6.93;1.70;;;;;;;;;;5062376;28;20486;-81
2024/04/03 04:24:13;;;;;;;10.60;2.63;;;;;;;;;;5042490;28;20045;-81
2024/04/03 04:27:02;;;;;;;6.70;2.78;;;;;;;;;;5041505;28;20029;-84
2024/04/03 04:29:54;;;;;;;5.38;3.22;;;;;;;;;;5045400;28;20037;-85
2024/04/03 04:32:46;;;;;;;4.97;2.08;;;;;;;;;;5049943;28;20028;-81
2024/04/03 04:35:36;;;;;;;6.78;1.45;;;;;;;;;;5059019;28;20506;-81
2024/04/03 04:38:28;;;;;;;4.78;2.25;;;;;;;;;;5062617;28;20033;-82
2024/04/03 04:41:18;;;;;;;4.90;2.55;;;;;;;;;;5059717;28;20033;-83
2024/04/03 04:44:05;;;;;;;3.78;2.03;;;;;;;;;;5057086;28;20032;-79
2024/04/03 04:46:57;;;;;;;4.80;1.48;;;;;;;;;;5059013;28;20037;-83
2024/04/03 04:49:49;;;;;;;8.05;2.33;;;;;;;;;;5059134;28;20053;-80
2024/04/03 04:52:41;;;;;;;4.60;2.22;;;;;;;;;;5045924;28;20034;-82
2024/04/03 04:55:33;;;;;;;5.82;2.33;;;;;;;;;;5048490;28;20029;-80
2024/04/03 04:58:20;;;;;;;4.22;2.17;;;;;;;;;;5052654;28;20033;-81
2024/04/03 05:01:11;;;;;;;9.38;2.40;;;;;;;;;;5050756;28;20045;-80
2024/04/03 05:04:03;;;;;;;9.85;2.05;;;;;;;;;;5057077;28;20029;-82
2024/04/03 05:06:57;;;;;;;10.02;3.10;;;;;;;;;;5055003;28;20033;-81
2024/04/03 05:09:49;;;;;;;6.28;2.45;;;;;;;;;;5053087;28;20033;-82
2024/04/03 05:12:40;;;;;;;9.07;2.78;;;;;;;;;;5052721;28;20029;-81
2024/04/03 05:15:32;;;;;;;8.57;2.47;;;;;;;;;;5051987;28;20032;-80
2024/04/03 05:18:27;;;;;;;8.88;1.85;;;;;;;;;;5048816;28;20041;-80
2024/04/03 05:21:17;;;;;;;6.78;2.72;;;;;;;;;;5039922;28;20041;-82
2024/04/03 05:24:06;;;;;;;12.82;2.08;;;;;;;;;;5057522;28;20379;-82
2024/04/03 05:26:55;;;;;;;5.88;2.72;;;;;;;;;;5057232;28;20033;-79
2024/04/03 05:29:45;;;;;;;34.50;7.55;;;;;;;;;;5059985;28;20045;-80
2024/04/03 05:32:34;;;;;;;9.63;3.75;;;;;;;;;;5057384;28;20037;-80
2024/04/03 05:35:26;;;;;;;11.50;2.85;;;;;;;;;;5056008;28;20036;-82
2024/04/03 05:38:18;;;;;;;8.63;3.10;;;;;;;;;;5052481;28;20255;-82
2024/04/03 05:41:10;;;;;;;3.90;2.65;;;;;;;;;;5056613;28;20049;-80
2024/04/03 05:44:02;;;;;;;7.70;2.13;;;;;;;;;;5058642;28;20029;-80
2024/04/03 05:46:52;;;;;;;8.68;2.25;;;;;;;;;;5052097;28;20036;-80
2024/04/03 05:49:44;;;;;;;12.07;2.38;;;;;;;;;;5056279;28;20033;-81
2024/04/03 05:52:35;;;;;;;14.48;3.25;;;;;;;;;;5053697;28;20524;-80
2024/04/03 05:55:25;;;;;;;13.00;2.75;;;;;;;;;;5058833;28;20040;-82
2024/04/03 05:58:16;;;;;;;21.35;3.50;;;;;;;;;;5052992;28;20040;-81
2024/04/03 06:01:08;;;;;;;7.90;2.17;;;;;;;;;;5053850;28;20060;-82
2024/04/03 06:04:00;;;;;;;10.75;2.75;;;;;;;;;;5057190;28;20037;-83
2024/04/03 06:06:52;;;;;;;9.48;3.45;;;;;;;;;;5056840;28;20044;-82
2024/04/03 06:09:44;;;;;;;23.42;3.67;;;;;;;;;;5052885;28;20036;-82
2024/04/03 06:12:35;;;;;;;34.10;5.03;;;;;;;;;;5055861;28;20489;-83
2024/04/03 06:15:24;;;;;;;72.70;8.45;;;;;;;;;;5054626;28;20037;-83
2024/04/03 06:18:16;;;;;;;77.85;13.38;;;;;;;;;;5053601;28;20425;-83
2024/04/03 06:21:12;;;;;;;218.05;36.95;;;;;;;;;;5056194;28;20509;-79
2024/04/03 06:24:04;;;;;;;136.95;23.17;;;;;;;;;;5050072;28;20048;-82
2024/04/03 06:26:56;;;;;;;88.63;13.55;;;;;;;;;;5053130;28;20036;-80
2024/04/03 06:29:47;;;;;;;33.13;6.40;;;;;;;;;;5049033;28;20468;-80
2024/04/03 06:32:39;;;;;;;9.20;4.32;;;;;;;;;;5052280;28;20046;-80
2024/04/03 06:35:31;;;;;;;10.65;3.10;;;;;;;;;;5047609;28;20596;-80
2024/04/03 06:38:23;;;;;;;12.15;3.72;;;;;;;;;;5051586;28;20040;-80
2024/04/03 06:41:14;;;;;;;10.38;3.58;;;;;;;;;;5051773;28;20040;-81
2024/04/03 06:44:06;;;;;;;24.70;4.43;;;;;;;;;;5055228;28;20036;-80
2024/04/03 06:47:03;;;;;;;26.17;5.20;;;;;;;;;;5052929;28;20043;-79
2024/04/03 06:49:51;;;;;;;16.85;4.00;;;;;;;;;;5056559;28;20046;-80
2024/04/03 06:52:44;;;;;;;13.93;3.08;;;;;;;;;;5054067;28;20053;-79
2024/04/03 06:55:36;;;;;;;12.02;3.45;;;;;;;;;;5051348;28;20052;-80
2024/04/03 06:58:26;;;;;;;12.57;3.20;;;;;;;;;;5051249;28;20069;-78
2024/04/03 07:01:18;;;;;;;15.55;4.78;;;;;;;;;;5054735;28;20049;-79
2024/04/03 07:04:10;;;;;;;17.73;6.13;;;;;;;;;;5051719;28;20113;-81
2024/04/03 07:07:02;;;;;;;14.07;3.55;;;;;;;;;;5061588;28;20375;-82
2024/04/03 07:09:54;;;;;;;12.15;4.43;;;;;;;;;;5064141;28;20064;-83
2024/04/03 07:12:46;;;;;;;18.00;4.82;;;;;;;;;;5053010;28;20055;-81
2024/04/03 07:15:38;;;;;;;11.57;3.42;;;;;;;;;;5051590;28;20048;-83
2024/04/03 07:18:27;;;;;;;16.60;4.70;;;;;;;;;;5056014;28;20557;-83
2024/04/03 07:21:14;;;;;;;29.17;6.93;;;;;;;;;;5053480;28;20048;-81
2024/04/03 07:24:03;;;;;;;16.70;5.32;;;;;;;;;;5054114;28;20033;-82
2024/04/03 07:26:55;;;;;;;15.23;3.78;;;;;;;;;;5050512;28;20056;-84
2024/04/03 07:29:47;;;;;;;14.48;4.10;;;;;;;;;;5060167;28;20041;-82
2024/04/03 07:32:36;;;;;;;10.07;3.65;;;;;;;;;;5048313;28;20048;-83
2024/04/03 07:35:28;;;;;;;10.38;3.63;;;;;;;;;;5060168;28;20513;-82
2024/04/03 07:38:20;;;;;;;14.77;3.80;;;;;;;;;;5050184;28;20065;-81
2024/04/03 07:41:09;;;;;;;13.80;3.75;;;;;;;;;;5060053;28;20179;-83
2024/04/03 07:44:01;;;;;;;10.82;3.78;;;;;;;;;;5061002;28;20394;-83
2024/04/03 07:46:51;;;;;;;14.85;3.65;;;;;;;;;;5057762;28;20522;-82
2024/04/03 07:49:40;;;;;;;10.07;4.63;;;;;;;;;;5055780;28;20037;-83
2024/04/03 07:52:32;;;;;;;15.70;3.65;;;;;;;;;;5058893;28;20033;-83
2024/04/03 07:55:23;;;;;;;11.93;3.35;;;;;;;;;;5061773;28;20055;-84
2024/04/03 07:58:13;;;;;;;6.93;2.97;;;;;;;;;;5050188;28;20030;-81
2024/04/03 08:01:03;;;;;;;10.60;3.58;;;;;;;;;;5047421;28;20033;-81
2024/04/03 08:03:55;;;;;;;9.68;3.58;;;;;;;;;;5049762;28;20025;-80
2024/04/03 08:06:47;;;;;;;17.88;4.03;;;;;;;;;;5046136;28;20042;-83
2024/04/03 08:09:39;;;;;;;17.23;3.25;;;;;;;;;;5054519;28;20048;-83
2024/04/03 08:12:34;;;;;;;10.93;3.33;;;;;;;;;;5054007;28;20517;-80
2024/04/03 08:15:23;;;;;;;8.77;2.90;;;;;;;;;;5058077;28;20037;-83
2024/04/03 08:18:15;;;;;;;8.48;2.90;;;;;;;;;;5048203;28;20044;-82
2024/04/03 08:21:10;;;;;;;6.80;3.05;;;;;;;;;;5049982;28;20032;-82
2024/04/03 08:24:02;;;;;;;6.72;3.55;;;;;;;;;;5056915;28;20037;-83
2024/04/03 08:26:54;;;;;;;7.35;3.22;;;;;;;;;;5047487;28;20029;-82
2024/04/03 08:29:46;;;;;;;14.23;4.70;;;;;;;;;;5057074;28;20033;-82
2024/04/03 08:32:38;;;;;;;13.90;4.75;;;;;;;;;;5060352;28;20036;-82
2024/04/03 08:35:27;;;;;;;10.82;4.57;;;;;;;;;;5046181;28;20041;-82
2024/04/03 08:38:19;;;;;;;13.57;4.60;;;;;;;;;;5051369;28;20048;-83
2024/04/03 08:41:11;;;;;;;26.55;4.63;;;;;;;;;;5048424;28;20037;-81
2024/04/03 08:44:03;;;;;;;10.80;4.65;;;;;;;;;;5046648;28;20029;-80
2024/04/03 08:46:55;;;;;;;13.88;4.88;;;;;;;;;;5055140;28;20048;-80
2024/04/03 08:49:45;;;;;;;16.48;4.07;;;;;;;;;;5054492;28;20413;-80
2024/04/03 08:52:35;;;;;;;15.05;4.32;;;;;;;;;;5058242;28;20044;-81
2024/04/03 08:55:27;;;;;;;8.20;3.55;;;;;;;;;;5056380;28;20509;-81
2024/04/03 08:58:19;;;;;;;14.85;5.47;;;;;;;;;;5053370;28;20041;-81
2024/04/03 09:01:12;;;;;;;19.27;5.03;;;;;;;;;;5055437;28;20045;-81
2024/04/03 09:04:04;;;;;;;8.43;4.32;;;;;;;;;;5055170;28;20033;-80
2024/04/03 09:06:54;;;;;;;13.52;3.35;;;;;;;;;;5053599;28;20383;-83
2024/04/03 09:09:43;;;;;;;7.97;3.92;;;;;;;;;;5056541;28;20407;-82
2024/04/03 09:12:34;;;;;;;11.65;3.20;;;;;;;;;;5054434;28;20045;-81
2024/04/03 09:15:26;;;;;;;5.97;3.33;;;;;;;;;;5058431;28;20037;-82
2024/04/03 09:18:18;;;;;;;8.50;3.28;;;;;;;;;;5052694;28;20041;-82
2024/04/03 09:21:09;;;;;;;9.18;3.70;;;;;;;;;;5053563;28;20037;-80
2024/04/03 09:23:59;;;;;;;15.70;4.22;;;;;;;;;;5057246;28;20040;-81
2024/04/03 09:26:50;;;;;;;7.18;3.58;;;;;;;;;;5054714;28;20033;-81
2024/04/03 09:29:42;;;;;;;9.18;3.67;;;;;;;;;;5052774;28;20033;-81
2024/04/03 09:32:31;;;;;;;27.05;3.60;;;;;;;;;;5056014;28;20037;-80
2024/04/03 09:35:21;;;;;;;7.38;3.15;;;;;;;;;;5054385;28;20047;-80
2024/04/03 09:38:13;;;;;;;8.23;3.15;;;;;;;;;;5051876;28;20041;-81
2024/04/03 09:41:06;;;;;;;11.18;4.07;;;;;;;;;;5056323;28;20041;-82
2024/04/03 09:44:00;;;;;;;6.68;2.70;;;;;;;;;;5053707;28;20410;-82
2024/04/03 09:46:55;;;;;;;9.98;3.03;;;;;;;;;;5056266;28;20041;-81
2024/04/03 09:49:49;;;;;;;10.20;3.28;;;;;;;;;;5054587;28;20041;-80
2024/04/03 09:52:42;;;;;;;7.28;2.10;;;;;;;;;;5052024;28;20036;-82
2024/04/03 09:55:31;;;;;;;7.32;3.00;;;;;;;;;;5055886;28;20029;-81
2024/04/03 09:58:26;;;;;;;7.07;3.65;;;;;;;;;;5051165;28;20037;-81
2024/04/03 10:01:19;;;;;;;8.53;3.43;;;;;;;;;;5053622;28;20388;-80
2024/04/03 10:04:09;;;;;;;9.02;3.20;;;;;;;;;;5055047;28;20033;-80
2024/04/03 10:07:02;;;;;;;11.13;4.10;;;;;;;;;;5051103;28;20064;-81
2024/04/03 10:10:00;;;;;;;5.88;3.38;;;;;;;;;;5056033;28;20044;-80
2024/04/03 10:12:52;;;;;;;7.43;3.40;;;;;;;;;;5053771;28;20494;-81
2024/04/03 10:15:44;;;;;;;10.25;3.25;;;;;;;;;;5051812;28;20037;-80
2024/04/03 10:18:40;;;;;;;5.60;3.20;;;;;;;;;;5054910;28;20040;-80
2024/04/03 10:21:35;;;;;;;4.20;2.42;;;;;;;;;;5051937;28;20364;-80
2024/04/03 10:24:25;;;;;;;;;;;;;;;;;;5056513;28;20037;-78
2024/04/03 10:27:16;;;;;;;4.25;1.90;;;;;;;;;;5053815;28;19916;-80
2024/04/03 10:30:09;;;;;;;7.65;2.38;;;;;;;;;;5051274;28;20493;-81
2024/04/03 10:33:00;;;;;;;3.63;2.40;;;;;;;;;;5055177;28;20033;-81
2024/04/03 10:35:52;;;;;;;11.60;2.65;;;;;;;;;;5052642;28;20028;-80
2024/04/03 10:38:41;;;;;;;7.03;2.75;;;;;;;;;;5056393;28;20054;-80
2024/04/03 10:41:31;;;;;;;5.47;2.55;;;;;;;;;;5053700;28;20029;-80
2024/04/03 10:44:17;;;;;;;11.32;3.50;;;;;;;;;;5050353;28;20044;-82
2024/04/03 10:47:09;;;;;;;6.20;2.17;;;;;;;;;;5050012;28;20038;-81
2024/04/03 10:49:59;;;;;;;7.80;2.40;;;;;;;;;;5054648;28;20045;-81
2024/04/03 10:52:49;;;;;;;6.43;2.08;;;;;;;;;;5052016;28;20045;-80
2024/04/03 10:55:41;;;;;;;7.60;1.88;;;;;;;;;;5055888;28;20037;-81
2024/04/03 10:58:33;;;;;;;3.85;2.20;;;;;;;;;;5044879;28;20033;-80
2024/04/03 11:01:25;;;;;;;6.20;1.70;;;;;;;;;;5051371;28;20045;-81
2024/04/03 11:04:18;;;;;;;4.43;2.03;;;;;;;;;;5055714;28;20033;-81
2024/04/03 11:07:08;;;;;;;9.63;2.00;;;;;;;;;;5053110;28;20037;-81
2024/04/03 11:09:54;;;;;;;4.80;2.03;;;;;;;;;;5056663;28;20036;-80
2024/04/03 11:12:46;;;;;;;10.13;3.50;;;;;;;;;;5054803;28;20041;-81
2024/04/03 11:15:38;;;;;;;5.95;1.60;;;;;;;;;;5050227;28;20511;-79
2024/04/03 11:18:28;;;;;;;4.90;2.47;;;;;;;;;;5056387;28;20037;-82
2024/04/03 11:21:20;;;;;;;12.23;1.75;;;;;;;;;;5053806;28;20387;-81
2024/04/03 11:24:12;;;;;;;7.38;1.65;;;;;;;;;;5045617;28;20060;-81
2024/04/03 11:27:01;;;;;;;7.82;1.95;;;;;;;;;;5054576;28;20021;-81
2024/04/03 11:29:53;;;;;;;15.32;3.75;;;;;;;;;;5040339;28;20041;-81
2024/04/03 11:32:43;;;;;;;2.85;1.38;;;;;;;;;;5048794;28;20048;-80
2024/04/03 11:35:35;;;;;;;3.90;1.80;;;;;;;;;;5054682;28;20041;-80
2024/04/03 11:38:27;;;;;;;10.43;1.83;;;;;;;;;;5052067;28;20029;-80
2024/04/03 11:41:19;;;;;;;12.02;2.70;;;;;;;;;;5056041;28;20052;-81
2024/04/03 11:44:10;;;;;;;11.00;2.20;;;;;;;;;;5058338;28;20040;-82
2024/04/03 11:46:58;;;;;;;5.60;1.63;;;;;;;;;;5055372;28;20406;-81
2024/04/03 11:49:48;;;;;;;6.97;1.80;;;;;;;;;;5058160;28;20037;-80
2024/04/03 11:52:37;;;;;;;5.05;1.42;;;;;;;;;;5045142;28;20045;-80
2024/04/03 11:55:29;;;;;;;10.73;1.48;;;;;;;;;;5036980;28;20034;-80
2024/04/03 11:58:16;;;;;;;8.57;2.13;;;;;;;;;;5049087;28;20037;-80
2024/04/03 12:01:08;;;;;;;10.38;1.45;;;;;;;;;;5056141;28;20041;-82
2024/04/03 12:03:57;;;;;;;5.40;1.60;;;;;;;;;;5055008;28;20036;-80
2024/04/03 12:06:46;;;;;;;;;;;;;;;;;;5058488;28;20033;-82
2024/04/03 12:09:38;;;;;;;;;;;;;;;;;;5055159;28;19916;-81
2024/04/03 12:12:27;;;;;;;;;;;;;;;;;;5058660;28;19916;-81
2024/04/03 12:15:22;;;;;;;;;;;;;;;;;;5057027;28;19920;-82
2024/04/03 12:18:12;;;;;;;;;;;;;;;;;;5055190;28;19935;-81
2024/04/03 12:21:01;;;;;;;;;;;;;;;;;;5058304;28;19932;-81
2024/04/03 12:23:50;;;;;;;;;;;;;;;;;;5056371;28;19916;-81
2024/04/03 12:26:39;;;;;;;;;;;;;;;;;;5054512;28;19916;-81
2024/04/03 12:29:28;;;;;;;;;;;;;;;;;;5057908;28;19920;-81
2024/04/03 12:32:18;;;;;;;;;;;;;;;;;;5055889;28;19916;-81
2024/04/03 12:35:07;;;;;;;;;;;;;;;;;;5066677;28;19928;-81
2024/04/03 12:37:56;;;;;;;;;;;;;;;;;;5054530;28;19919;-80
2024/04/03 12:40:45;;;;;;;;;;;;;;;;;;5055222;28;19916;-81
2024/04/03 12:43:33;;;;;;;;;;;;;;;;;;5053855;28;19915;-80
2024/04/03 12:46:23;;;;;;;;;;;;;;;;;;5056946;28;19916;-81
2024/04/03 12:49:10;;;;;;;;;;;;;;;;;;5054900;28;19916;-81
2024/04/03 12:51:59;;;;;;;;;;;;;;;;;;5059376;28;19951;-81
2024/04/03 12:54:45;;;;;;;;;;;;;;;;;;5055552;28;19932;-81
2024/04/03 12:57:35;;;;;;;;;;;;;;;;;;5054420;28;19924;-79
2024/04/03 13:00:24;;;;;;;;;;;;;;;;;;5057485;28;19927;-80
2024/04/03 13:03:13;;;;;;;;;;;;;;;;;;5056162;28;19916;-81
2024/04/03 13:06:00;;;;;;;;;;;;;;;;;;5054182;28;19919;-81
2024/04/03 13:08:46;;;;;;;;;;;;;;;;;;5058267;28;19962;-81
2024/04/03 13:11:33;;;;;;;;;;;;;;;;;;5055796;28;19915;-81
2024/04/03 13:14:22;;;;;;;;;;;;;;;;;;5054137;28;19931;-81
2024/04/03 13:17:12;;;;;;;;;;;;;;;;;;5055689;28;19916;-80
2024/04/03 13:19:59;;;;;;;;;;;;;;;;;;5068694;28;20201;-81
2024/04/03 13:22:48;;;;;;;;;;;;;;;;;;5053580;28;19919;-81
2024/04/03 13:25:37;;;;;;;;;;;;;;;;;;5051029;28;19920;-81
2024/04/03 13:28:24;;;;;;;;;;;;;;;;;;5052076;28;19916;-81
2024/04/03 13:31:13;;;;;;;;;;;;;;;;;;5052945;28;19919;-82
2024/04/03 13:34:00;;;;;;;;;;;;;;;;;;5056688;28;19919;-81
2024/04/03 13:36:49;;;;;;;;;;;;;;;;;;5055127;28;19916;-82
2024/04/03 13:39:38;;;;;;;;;;;;;;;;;;5052656;28;20277;-81
2024/04/03 13:42:27;;;;;;;;;;;;;;;;;;5056208;28;19967;-81
2024/04/03 13:45:16;;;;;;;;;;;;;;;;;;5054238;28;19916;-81
2024/04/03 13:48:06;;;;;;;;;;;;;;;;;;5052296;28;20301;-81
2024/04/03 13:50:55;;;;;;;;;;;;;;;;;;5055715;28;19916;-81
2024/04/03 13:53:44;;;;;;;;;;;;;;;;;;5053785;28;20393;-81
2024/04/03 13:56:33;;;;;;;;;;;;;;;;;;5056963;28;19920;-81
2024/04/03 13:59:22;;;;;;;;;;;;;;;;;;5055616;28;19935;-81
2024/04/03 14:02:12;;;;;;;;;;;;;;;;;;5051403;28;19919;-81
2024/04/03 14:04:59;;;;;;;;;;;;;;;;;;5056649;28;19931;-81
2024/04/03 14:07:48;;;;;;;;;;;;;;;;;;5053252;28;19915;-81
2024/04/03 14:10:38;;;;;;;;;;;;;;;;;;5052575;28;20219;-81
2024/04/03 14:13:24;;;;;;;;;;;;;;;;;;5070022;28;19920;-81
2024/04/03 14:16:13;;;;;;;;;;;;;;;;;;5054527;28;19917;-81
2024/04/03 14:19:03;;;;;;;;;;;;;;;;;;5052491;28;19919;-81
2024/04/03 14:21:52;;;;;;;;;;;;;;;;;;5055917;28;20300;-81
2024/04/03 14:24:39;;;;;;;;;;;;;;;;;;5054066;28;20330;-81
2024/04/03 14:27:27;;;;;;;;;;;;;;;;;;5052019;28;19916;-80
2024/04/03 14:30:13;;;;;;;;;;;;;;;;;;5056523;28;19916;-82
2024/04/03 14:33:03;;;;;;;;;;;;;;;;;;5052594;28;20298;-81
2024/04/03 14:35:52;;;;;;;;;;;;;;;;;;5053178;28;19924;-81
2024/04/03 14:38:41;;;;;;;;;;;;;;;;;;5053648;28;19919;-81
2024/04/03 14:41:28;;;;;;;;;;;;;;;;;;5045438;28;19924;-80
2024/04/03 14:44:18;;;;;;;;;;;;;;;;;;5050224;28;19917;-82
2024/04/03 14:47:10;;;;;;;6.97;1.50;;;;;;;;;;5052674;28;20425;-80
2024/04/03 14:49:59;;;;;;;4.63;1.02;;;;;;;;;;5052522;28;20037;-81
2024/04/03 14:52:51;;;;;;;2.72;0.75;;;;;;;;;;5053116;28;20041;-80
2024/04/03 14:55:40;;;;;;;5.88;1.02;;;;;;;;;;5051003;28;20033;-82
2024/04/03 14:58:29;;;;;;;5.55;1.17;;;;;;;;;;5052862;28;20383;-81
2024/04/03 15:01:21;;;;;;;4.30;1.00;;;;;;;;;;5033956;28;20037;-80
2024/04/03 15:04:13;;;;;;;5.43;1.20;;;;;;;;;;5034319;28;20034;-78
2024/04/03 15:07:05;;;;;;;2.53;0.73;;;;;;;;;;5033634;28;20034;-79
2024/04/03 15:09:57;;;;;;;4.05;1.17;;;;;;;;;;5054573;28;20055;-80
2024/04/03 15:12:47;;;;;;;6.93;0.90;;;;;;;;;;5053289;28;20036;-79
2024/04/03 15:15:46;;;;;;;4.20;1.15;;;;;;;;;;5050861;28;20033;-81
2024/04/03 15:18:38;;;;;;;3.60;0.80;;;;;;;;;;5056263;28;20033;-82
2024/04/03 15:21:30;;;;;;;9.20;0.60;;;;;;;;;;5060316;28;20040;-84
2024/04/03 15:24:22;;;;;;;6.38;1.45;;;;;;;;;;5064211;28;20037;-83
2024/04/03 15:27:13;;;;;;;2.50;0.68;;;;;;;;;;5063537;28;20028;-85
2024/04/03 15:30:05;;;;;;;3.53;0.75;;;;;;;;;;5058509;28;20029;-79
2024/04/03 15:32:57;;;;;;;2.90;0.63;;;;;;;;;;5064660;28;20037;-82
2024/04/03 15:35:52;;;;;;;5.18;0.70;;;;;;;;;;5059082;28;20033;-84
2024/04/03 15:38:49;;;;;;;7.95;0.85;;;;;;;;;;5063507;28;20037;-80
2024/04/03 15:41:38;;;;;;;3.60;0.85;;;;;;;;;;5063245;28;20025;-82
2024/04/03 15:44:31;;;;;;;35.22;2.40;;;;;;;;;;5063338;28;20040;-81
2024/04/03 15:47:22;;;;;;;12.82;1.23;;;;;;;;;;5059673;28;20032;-83
2024/04/03 15:50:14;;;;;;;7.50;1.08;;;;;;;;;;5063212;28;20033;-80
2024/04/03 15:53:05;;;;;;;10.20;1.20;;;;;;;;;;5057429;28;20037;-82
2024/04/03 15:55:56;;;;;;;4.65;1.45;;;;;;;;;;5062825;28;20040;-81
2024/04/03 15:58:43;;;;;;;4.18;1.60;;;;;;;;;;5057212;28;20037;-80
2024/04/03 16:01:35;;;;;;;8.60;1.20;;;;;;;;;;5056666;28;20041;-79
2024/04/03 16:04:23;;;;;;;7.93;1.25;;;;;;;;;;5061794;28;20033;-79
2024/04/03 16:07:14;;;;;;;4.40;2.30;;;;;;;;;;5056306;28;20036;-79
2024/04/03 16:10:04;;;;;;;3.90;1.10;;;;;;;;;;5061878;28;20394;-84
2024/04/03 16:12:56;;;;;;;7.35;2.10;;;;;;;;;;5070618;28;20033;-79
2024/04/03 16:15:47;;;;;;;0.98;0.50;;;;;;;;;;5064852;28;20505;-79
2024/04/03 16:18:39;;;;;;;2.45;0.65;;;;;;;;;;5071038;28;20033;-78
2024/04/03 16:21:31;;;;;;;2.75;0.70;;;;;;;;;;5049101;28;20028;-79
